Time;durP1;ratioP1;P1;durP2;ratioP2;P2;SDS_P1;SDS_P2;PMS_P1;PMS_P2;Temp;Humidity;BMP_temperature;BMP_pressure;BME280_temperature;BME280_humidity;BME280_pressure;Samples;Min_cycle;Max_cycle;Signal;HPM_P1;HPM_P2
2022/08/18 00:01:42;;;;;;;;;21.33;17.00;;;;;21.84;67.46;100807.47;5009983;28;45521;-66
2022/08/18 00:04:10;;;;;;;;;15.33;14.33;;;;;21.83;67.54;100803.09;5001070;28;45572;-66
2022/08/18 00:06:35;;;;;;;;;18.00;16.33;;;;;21.78;67.63;100805.06;5006510;28;45926;-69
2022/08/18 00:09:06;;;;;;;;;16.33;15.33;;;;;21.84;67.80;100803.94;5012209;28;45690;-66
2022/08/18 00:11:35;;;;;;;;;18.67;14.67;;;;;21.84;67.78;100812.81;5012637;28;45771;-67
2022/08/18 00:14:01;;;;;;;;;15.33;15.33;;;;;21.75;67.94;100808.72;5014075;28;45555;-68
2022/08/18 00:16:26;;;;;;;;;16.67;15.67;;;;;21.77;67.98;100809.53;5014640;28;45362;-67
2022/08/18 00:18:52;;;;;;;;;21.00;13.33;;;;;21.78;67.76;100810.41;5009858;28;45429;-66
2022/08/18 00:21:18;;;;;;;;;16.00;14.33;;;;;21.79;67.88;100810.34;5018042;28;45279;-65
2022/08/18 00:23:47;;;;;;;;;21.00;16.33;;;;;21.85;67.51;100806.53;5015665;28;45640;-64
2022/08/18 00:26:13;;;;;;;;;11.67;9.67;;;;;21.90;67.32;100803.66;5013386;28;45426;-63
2022/08/18 00:28:38;;;;;;;;;16.67;14.00;;;;;21.88;67.10;100801.09;5013483;28;46271;-64
2022/08/18 00:31:05;;;;;;;;;16.33;15.67;;;;;21.87;66.84;100803.81;5016644;28;45673;-65
2022/08/18 00:33:30;;;;;;;;;14.67;14.00;;;;;21.90;67.11;100815.22;5014132;28;45704;-65
2022/08/18 00:35:56;;;;;;;;;12.00;11.33;;;;;21.88;66.61;100789.53;5014416;28;45466;-65
2022/08/18 00:38:22;;;;;;;;;13.67;12.00;;;;;22.02;66.45;100800.47;5013619;28;46098;-65
2022/08/18 00:40:50;;;;;;;;;12.00;11.33;;;;;22.03;66.70;100796.88;5014384;28;45419;-65
2022/08/18 00:43:28;;;;;;;;;15.00;13.33;;;;;22.01;66.57;100786.25;5013223;28;45441;-67
2022/08/18 00:45:53;;;;;;;;;14.00;11.00;;;;;21.96;66.43;100768.75;5012952;28;45386;-66
2022/08/18 00:48:19;;;;;;;;;12.33;12.33;;;;;22.15;65.78;100809.63;5013164;28;45580;-68
2022/08/18 00:50:54;;;;;;;;;9.67;8.00;;;;;22.15;66.40;100817.66;5013597;28;45500;-66
2022/08/18 00:53:33;;;;;;;;;13.33;11.67;;;;;22.05;66.28;100799.47;5014400;28;45464;-68
2022/08/18 00:56:05;;;;;;;;;12.33;12.33;;;;;22.08;66.36;100813.53;5016540;28;45508;-67
2022/08/18 00:58:39;;;;;;;;;11.00;11.00;;;;;22.06;66.82;100809.19;5012177;28;46322;-68
2022/08/18 01:01:10;;;;;;;;;13.33;13.33;;;;;22.06;66.43;100815.38;5013652;28;45347;-68
2022/08/18 01:03:38;;;;;;;;;12.67;12.33;;;;;21.97;66.75;100815.78;5012950;28;45465;-66
2022/08/18 01:06:33;;;;;;;;;16.33;13.00;;;;;21.89;66.82;100817.94;5013646;28;45548;-64
2022/08/18 01:08:59;;;;;;;;;15.67;15.00;;;;;21.90;66.77;100809.88;5010379;28;45844;-66
2022/08/18 01:11:24;;;;;;;;;12.67;10.67;;;;;21.98;66.96;100815.72;5013106;28;45485;-66
2022/08/18 01:13:52;;;;;;;;;13.00;12.33;;;;;22.05;66.50;100815.47;5016748;28;45469;-64
2022/08/18 01:21:59;;;;;;;;;11.67;11.33;;;;;22.14;65.92;100801.69;5012596;28;45530;-65
2022/08/18 01:27:18;;;;;;;;;16.33;15.00;;;;;22.12;66.08;100800.94;5015222;28;45478;-66
2022/08/18 01:29:46;;;;;;;;;17.67;14.00;;;;;22.01;66.41;100809.41;5012448;28;46007;-67
2022/08/18 01:32:18;;;;;;;;;14.33;12.33;;;;;21.94;65.99;100799.94;5014696;28;45836;-65
2022/08/18 01:34:46;;;;;;;;;15.00;15.00;;;;;21.88;66.16;100811.75;5013982;28;45395;-64
2022/08/18 01:37:17;;;;;;;;;15.33;13.00;;;;;21.57;66.41;100778.44;5012893;28;45598;-64
2022/08/18 01:39:44;;;;;;;;;13.33;11.33;;;;;21.84;66.36;100818.13;5013195;28;45576;-65
2022/08/18 01:42:13;;;;;;;;;13.67;12.33;;;;;21.83;66.19;100805.75;5012894;28;45611;-65
2022/08/18 01:44:40;;;;;;;;;14.33;12.00;;;;;21.93;65.74;100798.22;5011191;28;45498;-67
2022/08/18 01:47:09;;;;;;;;;15.33;11.33;;;;;22.00;65.61;100805.00;5013192;28;45542;-69
2022/08/18 01:49:36;;;;;;;;;10.67;9.00;;;;;22.09;65.42;100825.94;5011451;28;46472;-66
2022/08/18 01:52:03;;;;;;;;;10.67;9.00;;;;;22.09;65.86;100822.38;5005773;28;45527;-65
2022/08/18 01:54:29;;;;;;;;;10.67;9.67;;;;;22.03;66.31;100816.38;5013020;28;45492;-64
2022/08/18 01:56:55;;;;;;;;;11.00;11.00;;;;;22.07;65.87;100810.91;5007854;28;45505;-67
2022/08/18 01:59:20;;;;;;;;;13.67;11.67;;;;;22.11;65.51;100824.03;5009101;28;45548;-65
2022/08/18 02:01:46;;;;;;;;;11.00;10.67;;;;;22.13;65.76;100824.84;5027905;28;45456;-65
2022/08/18 02:04:14;;;;;;;;;12.33;11.00;;;;;22.09;66.15;100814.38;5016019;28;45452;-64
2022/08/18 02:06:43;;;;;;;;;9.67;9.67;;;;;21.93;65.82;100793.75;5016728;28;45578;-63
2022/08/18 02:09:09;;;;;;;;;11.67;11.00;;;;;22.11;65.76;100820.53;5016478;28;46855;-65
2022/08/18 02:11:35;;;;;;;;;11.67;11.00;;;;;22.03;65.80;100799.53;5018403;28;45500;-65
2022/08/18 02:14:00;;;;;;;;;12.67;12.67;;;;;22.07;65.74;100821.56;5016907;28;45808;-65
2022/08/18 02:16:26;;;;;;;;;15.00;12.00;;;;;21.89;65.87;100826.81;5016077;28;45915;-66
2022/08/18 02:18:52;;;;;;;;;15.33;14.00;;;;;21.90;65.97;100825.00;5015740;28;45613;-65
2022/08/18 02:21:19;;;;;;;;;16.67;13.67;;;;;21.91;65.97;100824.94;5015696;28;45493;-64
2022/08/18 02:23:46;;;;;;;;;14.67;11.67;;;;;21.87;66.44;100828.66;5016682;28;45347;-65
2022/08/18 02:26:15;;;;;;;;;12.33;11.00;;;;;21.89;66.40;100826.81;5018144;28;45418;-65
2022/08/18 02:28:42;;;;;;;;;13.00;11.33;;;;;21.89;66.16;100816.13;5016908;28;45462;-65
2022/08/18 02:31:15;;;;;;;;;12.33;12.33;;;;;22.00;65.36;100821.88;5029894;28;45417;-65
2022/08/18 02:33:41;;;;;;;;;8.67;8.67;;;;;22.00;65.08;100815.69;5014422;28;45895;-65
2022/08/18 02:36:08;;;;;;;;;12.33;10.67;;;;;22.07;64.98;100816.25;5016354;28;45358;-64
2022/08/18 02:38:34;;;;;;;;;11.00;11.00;;;;;22.09;64.39;100820.59;5016220;28;45911;-64
2022/08/18 02:41:03;;;;;;;;;9.33;9.33;;;;;22.15;64.19;100836.31;5015936;28;45402;-65
2022/08/18 02:43:29;;;;;;;;;9.33;9.33;;;;;22.16;64.35;100832.72;5015585;28;45616;-65
2022/08/18 02:45:56;;;;;;;;;10.00;10.00;;;;;22.16;63.89;100827.41;5015346;28;45425;-65
2022/08/18 02:48:33;;;;;;;;;11.33;10.67;;;;;22.16;64.18;100824.72;5015530;28;46161;-66
2022/08/18 02:51:11;;;;;;;;;11.00;8.33;;;;;22.18;63.67;100825.50;5001826;28;45399;-64
2022/08/18 02:53:39;;;;;;;;;9.33;8.33;;;;;22.16;62.85;100821.16;5018440;28;45482;-64
2022/08/18 02:58:47;;;;;;;;;9.67;8.00;;;;;22.15;63.22;100820.31;5015689;28;45883;-65
2022/08/18 03:01:13;;;;;;;;;11.00;8.67;;;;;22.12;62.51;100820.47;5017197;28;45406;-64
2022/08/18 03:03:38;;;;;;;;;14.33;10.00;;;;;22.14;62.60;100823.03;5017759;28;45395;-65
2022/08/18 03:06:05;;;;;;;;;11.67;10.67;;;;;22.13;62.44;100816.84;5015231;28;46167;-64
2022/08/18 03:08:31;;;;;;;;;9.67;8.67;;;;;22.09;62.35;100807.28;5019054;28;46242;-64
2022/08/18 03:10:58;;;;;;;;;11.67;10.00;;;;;22.13;62.43;100813.31;5014962;28;45462;-65
2022/08/18 03:13:24;;;;;;;;;11.00;10.33;;;;;22.11;62.11;100815.19;5015977;28;45834;-63
2022/08/18 03:15:50;;;;;;;;;12.00;11.33;;;;;22.12;62.55;100820.47;5016878;28;45371;-64
2022/08/18 03:18:15;;;;;;;;;11.67;9.67;;;;;22.12;62.35;100811.59;5015514;28;45346;-65
2022/08/18 03:20:44;;;;;;;;;10.67;10.33;;;;;22.03;62.39;100799.53;5014381;28;45751;-63
2022/08/18 03:23:10;;;;;;;;;10.67;10.67;;;;;21.82;63.01;100793.34;5016585;28;45375;-64
2022/08/18 03:25:42;;;;;;;;;13.67;11.67;;;;;21.74;63.71;100811.50;5018456;28;45244;-65
2022/08/18 03:28:08;;;;;;;;;8.33;8.33;;;;;21.68;64.09;100803.75;5014949;28;45709;-65
2022/08/18 03:30:34;;;;;;;;;9.00;9.00;;;;;21.72;63.56;100797.34;5015174;28;45536;-64
2022/08/18 03:32:59;;;;;;;;;13.33;9.33;;;;;21.76;63.36;100798.97;5014254;28;45763;-65
2022/08/18 03:35:25;;;;;;;;;12.00;12.00;;;;;21.69;62.93;100762.81;5014216;28;45433;-64
2022/08/18 03:37:51;;;;;;;;;12.67;11.00;;;;;21.93;62.72;100815.06;5017950;28;46214;-65
2022/08/18 03:40:16;;;;;;;;;10.67;10.67;;;;;21.94;63.44;100816.78;5018990;28;45519;-65
2022/08/18 03:42:42;;;;;;;;;10.67;9.33;;;;;21.97;62.71;100815.78;5018983;28;45362;-64
2022/08/18 03:45:08;;;;;;;;;13.00;11.33;;;;;21.92;62.69;100801.81;5017414;28;45300;-65
2022/08/18 03:47:34;;;;;;;;;14.33;11.33;;;;;21.99;62.63;100806.78;5013947;28;45972;-65
2022/08/18 03:49:59;;;;;;;;;15.67;13.00;;;;;21.98;62.95;100796.22;5014645;28;45304;-64
2022/08/18 03:52:25;;;;;;;;;13.67;13.33;;;;;22.00;62.96;100815.69;5014718;28;45358;-63
2022/08/18 03:54:53;;;;;;;;;11.33;10.67;;;;;21.97;62.98;100806.00;5014848;28;45483;-64
2022/08/18 03:57:18;;;;;;;;;14.67;10.67;;;;;21.81;63.89;100811.16;5013856;28;47604;-64
2022/08/18 03:59:44;;;;;;;;;10.67;10.67;;;;;21.71;64.25;100808.94;5016898;28;45515;-65
2022/08/18 04:02:10;;;;;;;;;11.67;11.67;;;;;21.65;63.95;100785.22;5013831;28;45790;-64
2022/08/18 04:04:37;;;;;;;;;13.33;11.67;;;;;21.78;63.27;100799.72;5014896;28;45395;-65
2022/08/18 04:07:06;;;;;;;;;16.00;16.00;;;;;21.87;63.15;100804.66;5014114;28;45458;-64
2022/08/18 04:09:33;;;;;;;;;12.33;11.33;;;;;21.91;63.04;100803.59;5014503;28;45486;-64
2022/08/18 04:12:09;;;;;;;;;12.67;12.33;;;;;21.93;63.32;100799.06;5014419;28;45489;-64
2022/08/18 04:14:36;;;;;;;;;15.67;14.33;;;;;21.94;63.23;100794.59;5014421;28;45412;-66
2022/08/18 04:17:01;;;;;;;;;13.00;12.33;;;;;21.87;64.13;100796.66;5013334;28;45806;-65
2022/08/18 04:19:27;;;;;;;;;14.00;12.67;;;;;21.77;64.18;100790.00;5013536;28;45392;-65
2022/08/18 04:21:55;;;;;;;;;13.00;12.33;;;;;21.66;65.44;100795.78;5015219;28;45743;-65
2022/08/18 04:24:21;;;;;;;;;9.33;9.33;;;;;21.58;64.47;100788.13;5018737;28;45324;-66
2022/08/18 04:26:47;;;;;;;;;13.00;11.67;;;;;21.68;64.72;100790.41;5016960;28;45563;-68
2022/08/18 04:29:15;;;;;;;;;13.33;13.33;;;;;21.76;63.91;100810.47;5014242;28;45519;-64
2022/08/18 04:31:41;;;;;;;;;13.67;11.67;;;;;21.76;63.38;100796.28;5013903;28;45314;-65
2022/08/18 04:34:07;;;;;;;;;14.00;12.33;;;;;21.78;63.30;100807.72;5007077;28;45280;-68
2022/08/18 04:36:35;;;;;;;;;14.33;14.33;;;;;21.70;63.11;100807.22;5014291;28;45965;-66
2022/08/18 04:39:03;;;;;;;;;14.00;13.33;;;;;21.65;63.57;100814.53;5014182;28;45423;-65
2022/08/18 04:41:30;;;;;;;;;14.33;14.33;;;;;21.51;63.87;100801.81;5012709;28;45451;-65
2022/08/18 04:44:01;;;;;;;;;12.00;12.00;;;;;21.54;63.94;100807.84;5027758;28;45437;-66
2022/08/18 04:46:28;;;;;;;;;12.33;11.00;;;;;21.58;64.41;100820.13;5014278;28;46197;-65
2022/08/18 04:48:58;;;;;;;;;18.33;13.33;;;;;21.53;63.94;100818.59;5016165;28;45523;-64
2022/08/18 04:51:27;;;;;;;;;12.67;11.67;;;;;21.47;64.01;100814.38;5010677;28;45642;-64
2022/08/18 04:53:54;;;;;;;;;14.67;14.00;;;;;21.38;64.15;100807.63;5002239;28;45613;-64
2022/08/18 04:56:31;;;;;;;;;16.33;15.67;;;;;21.46;64.03;100825.13;5015214;28;45529;-66
2022/08/18 04:59:05;;;;;;;;;16.33;14.00;;;;;21.31;64.27;100813.28;5017835;28;45520;-64
2022/08/18 05:01:35;;;;;;;;;19.00;14.67;;;;;21.18;64.52;100804.91;5016975;28;45380;-64
2022/08/18 05:04:00;;;;;;;;;24.00;20.33;;;;;21.13;64.91;100810.41;5013855;28;45448;-64
2022/08/18 05:06:27;;;;;;;;;19.33;16.00;;;;;21.17;65.05;100825.34;5013481;28;45672;-65
2022/08/18 05:08:55;;;;;;;;;14.67;12.67;;;;;21.18;65.14;100828.88;5012151;28;45438;-65
2022/08/18 05:11:22;;;;;;;;;16.00;16.00;;;;;21.14;65.22;100833.47;5013209;28;45982;-66
2022/08/18 05:13:51;;;;;;;;;19.33;18.33;;;;;21.05;65.51;100831.19;5014895;28;45437;-65
2022/08/18 05:16:16;;;;;;;;;21.33;17.67;;;;;21.00;65.43;100821.63;5016489;28;45526;-66
2022/08/18 05:18:42;;;;;;;;;18.00;18.00;;;;;21.08;65.92;100841.69;5012736;28;45656;-67
2022/08/18 05:21:14;;;;;;;;;17.00;14.67;;;;;21.16;65.72;100844.91;5014141;28;45388;-67
2022/08/18 05:23:44;;;;;;;;;17.67;15.67;;;;;21.28;65.02;100843.53;5014943;28;45509;-67
2022/08/18 05:26:12;;;;;;;;;18.00;17.67;;;;;21.32;64.65;100839.81;5013084;28;45426;-67
2022/08/18 05:28:39;;;;;;;;;16.33;16.33;;;;;21.37;65.59;100847.63;5013964;28;45450;-69
2022/08/18 05:31:17;;;;;;;;;15.00;15.00;;;;;21.42;64.77;100850.16;5017231;28;45390;-66
2022/08/18 05:33:45;;;;;;;;;15.00;13.67;;;;;21.53;64.73;100850.56;5017812;28;45319;-67
2022/08/18 05:36:45;;;;;;;;;14.33;13.33;;;;;21.55;64.23;100838.91;5013733;28;46313;-63
2022/08/18 05:39:16;;;;;;;;;16.00;15.33;;;;;21.69;64.66;100857.00;5027917;28;45426;-67
2022/08/18 05:41:52;;;;;;;;;17.00;15.00;;;;;21.73;63.91;100863.06;5012952;28;45406;-64
2022/08/18 05:44:24;;;;;;;;;18.67;17.00;;;;;21.78;63.67;100866.38;5000209;28;45349;-63
2022/08/18 05:46:55;;;;;;;;;18.33;16.33;;;;;21.85;63.52;100867.00;5012108;28;46359;-66
2022/08/18 05:49:24;;;;;;;;;17.67;16.00;;;;;21.86;63.33;100853.59;4999624;28;45698;-65
2022/08/18 05:52:04;;;;;;;;;17.33;17.00;;;;;22.06;63.09;100874.06;5012813;28;45716;-64
2022/08/18 05:57:37;;;;;;;;;18.67;16.00;;;;;22.16;62.90;100877.19;5012600;28;46140;-65
2022/08/18 06:00:07;;;;;;;;;17.33;17.00;;;;;22.22;62.64;100884.97;5012889;28;45546;-66
2022/08/18 06:02:41;;;;;;;;;25.00;22.33;;;;;22.22;62.47;100880.50;5011016;28;45533;-68
2022/08/18 06:05:11;;;;;;;;;24.67;23.00;;;;;22.28;62.33;100882.03;5012499;28;45584;-66
2022/08/18 06:07:41;;;;;;;;;24.00;21.33;;;;;22.32;62.42;100885.44;5012194;28;45542;-68
2022/08/18 06:10:08;;;;;;;;;22.33;22.00;;;;;22.27;62.41;100877.63;5016103;28;45470;-67
2022/08/18 06:12:36;;;;;;;;;18.33;18.00;;;;;22.43;62.05;100878.66;5011052;28;45407;-67
2022/08/18 06:15:13;;;;;;;;;23.33;18.67;;;;;22.44;61.83;100859.03;5014730;28;45549;-66
2022/08/18 06:17:57;;;;;;;;;23.00;19.00;;;;;22.64;61.36;100870.63;5009706;28;45517;-66
2022/08/18 06:20:28;;;;;;;;;23.00;21.00;;;;;22.80;61.42;100873.44;5011668;28;45634;-67
2022/08/18 06:23:31;;;;;;;;;27.33;26.33;;;;;23.01;60.98;100874.25;5011909;28;45987;-66
2022/08/18 06:26:21;;;;;;;;;35.33;32.00;;;;;22.93;60.87;100879.94;5015302;28;45492;-68
2022/08/18 06:29:17;;;;;;;;;26.00;24.33;;;;;22.91;60.93;100895.16;5016574;28;46156;-68
2022/08/18 06:32:04;;;;;;;;;31.33;27.67;;;;;22.86;61.10;100882.03;5018249;28;45833;-66
2022/08/18 06:34:41;;;;;;;;;30.33;30.33;;;;;22.85;60.74;100880.31;5006657;28;46049;-68
2022/08/18 06:37:19;;;;;;;;;37.00;33.33;;;;;22.84;60.27;100888.38;5016441;28;46025;-67
2022/08/18 06:39:50;;;;;;;;;37.00;33.67;;;;;22.78;60.75;100886.00;5015699;28;45323;-68
2022/08/18 06:42:25;;;;;;;;;31.33;29.00;;;;;22.82;60.77;100892.94;5012883;28;45426;-65
2022/08/18 06:45:01;;;;;;;;;38.00;33.00;;;;;22.76;60.58;100874.53;5015786;28;45398;-68
2022/08/18 06:47:48;;;;;;;;;42.67;34.67;;;;;22.68;61.16;100893.56;5011241;28;45426;-67
2022/08/18 06:50:28;;;;;;;;;39.67;33.33;;;;;22.60;61.50;100887.72;5010047;28;46496;-63
2022/08/18 06:52:55;;;;;;;;;30.67;29.33;;;;;22.75;61.37;100896.81;5013733;28;45383;-69
2022/08/18 06:55:33;;;;;;;;;34.67;30.67;;;;;22.83;60.75;100905.38;5015618;28;45375;-68
2022/08/18 06:58:05;;;;;;;;;30.67;28.00;;;;;22.91;60.87;100903.19;5015766;28;45666;-67
2022/08/18 07:00:41;;;;;;;;;31.00;26.67;;;;;23.06;60.32;100904.28;5014992;28;45544;-66
2022/08/18 07:03:13;;;;;;;;;23.00;20.67;;;;;23.17;60.28;100906.47;5014945;28;45482;-68
2022/08/18 07:06:26;;;;;;;;;28.00;25.00;;;;;23.13;59.84;100896.84;5015191;28;45511;-68
2022/08/18 07:08:55;;;;;;;;;27.00;25.67;;;;;23.37;59.36;100909.06;5005929;28;45541;-69
2022/08/18 07:11:23;;;;;;;;;29.00;25.33;;;;;23.42;59.27;100914.16;5014608;28;45374;-66
2022/08/18 07:13:51;;;;;;;;;24.67;21.67;;;;;23.45;59.44;100914.03;5014897;28;45854;-66
2022/08/18 07:16:27;;;;;;;;;19.00;18.00;;;;;23.64;58.91;100908.63;5017708;28;45548;-64
2022/08/18 07:19:05;;;;;;;;;19.00;19.00;;;;;23.70;58.78;100894.94;5015476;28;45382;-64
2022/08/18 07:21:36;;;;;;;;;32.67;31.00;;;;;23.69;58.49;100903.91;5015277;28;46194;-65
2022/08/18 07:24:31;;;;;;;;;38.67;31.67;;;;;23.42;59.05;100908.81;5015395;28;45254;-69
2022/08/18 07:27:12;;;;;;;;;38.67;31.67;;;;;23.38;59.30;100907.25;5008802;28;45305;-63
2022/08/18 07:29:58;;;;;;;;;37.33;33.00;;;;;23.34;59.26;100897.63;5013037;28;45308;-65
2022/08/18 07:32:31;;;;;;;;;35.67;32.00;;;;;23.28;59.50;100897.00;4999055;28;46432;-64
2022/08/18 07:34:59;;;;;;;;;28.33;26.67;;;;;23.43;59.24;100907.88;5015724;28;45489;-64
2022/08/18 07:37:43;;;;;;;;;29.00;24.33;;;;;23.51;59.07;100905.69;5001273;28;45677;-65
2022/08/18 07:40:50;;;;;;;;;32.33;27.00;;;;;23.57;59.04;100907.22;5014416;28;45648;-64
2022/08/18 07:43:27;;;;;;;;;23.67;23.00;;;;;23.70;58.51;100913.66;5012030;28;45466;-67
2022/08/18 07:46:02;;;;;;;;;29.67;24.67;;;;;23.85;58.40;100912.06;5008914;28;45492;-66
2022/08/18 07:48:32;;;;;;;;;23.00;22.67;;;;;24.02;58.14;100914.75;5018484;28;45534;-64
2022/08/18 07:51:33;;;;;;;;;23.33;22.00;;;;;24.16;57.24;100913.19;5014690;28;45816;-67
2022/08/18 07:54:15;;;;;;;;;26.67;22.67;;;;;24.33;56.97;100924.72;5014677;28;46186;-65
2022/08/18 07:56:50;;;;;;;;;20.33;20.00;;;;;24.48;56.44;100924.88;5013790;28;45557;-66
2022/08/18 07:59:26;;;;;;;;;27.00;20.33;;;;;24.44;56.36;100916.13;5016266;28;45415;-66
2022/08/18 08:02:05;;;;;;;;;27.00;25.67;;;;;24.55;56.26;100931.66;5016125;28;45344;-64
2022/08/18 08:04:49;;;;;;;;;28.67;25.67;;;;;24.70;56.44;100921.91;5011974;28;45605;-65
2022/08/18 08:07:20;;;;;;;;;24.67;24.00;;;;;24.79;55.49;100913.38;5011535;28;45598;-64
2022/08/18 08:10:09;;;;;;;;;23.33;23.00;;;;;24.92;55.15;100908.25;5014701;28;45391;-68
2022/08/18 08:12:40;;;;;;;;;21.67;18.67;;;;;25.08;55.29;100913.59;5017153;28;45492;-65
2022/08/18 08:15:29;;;;;;;;;22.67;21.00;;;;;25.23;54.91;100903.88;5015175;28;45737;-67
2022/08/18 08:18:24;;;;;;;;;21.00;19.33;;;;;25.41;53.92;100901.94;5016504;28;45419;-64
2022/08/18 08:21:05;;;;;;;;;22.67;20.67;;;;;25.49;53.50;100886.28;5014303;28;45581;-68
2022/08/18 08:23:51;;;;;;;;;28.33;27.00;;;;;25.54;53.18;100890.44;5014504;28;45466;-66
2022/08/18 08:26:59;;;;;;;;;24.33;21.33;;;;;25.69;52.88;100888.66;5014495;28;45498;-65
2022/08/18 08:29:36;;;;;;;;;21.00;21.00;;;;;25.87;52.82;100889.44;4996378;28;45536;-65
2022/08/18 08:32:07;;;;;;;;;18.67;17.67;;;;;26.00;52.29;100878.81;5017897;28;45376;-67
2022/08/18 08:34:39;;;;;;;;;20.00;18.33;;;;;26.13;52.04;100884.31;5014511;28;45569;-67
2022/08/18 08:37:09;;;;;;;;;20.33;18.67;;;;;26.21;51.78;100873.97;5015723;28;45959;-66
2022/08/18 08:39:56;;;;;;;;;24.33;20.00;;;;;26.30;51.32;100873.41;5014896;28;45714;-65
2022/08/18 08:42:36;;;;;;;;;26.67;24.00;;;;;26.27;50.91;100886.13;5014103;28;45545;-66
2022/08/18 08:45:18;;;;;;;;;22.00;20.00;;;;;26.30;51.28;100877.91;5017053;28;45522;-68
2022/08/18 08:48:23;;;;;;;;;20.00;18.33;;;;;26.38;50.74;100880.97;5012764;28;46580;-66
2022/08/18 08:51:08;;;;;;;;;20.67;20.33;;;;;26.27;50.52;100894.19;5013929;28;45780;-69
2022/08/18 08:53:42;;;;;;;;;20.00;20.00;;;;;26.33;50.72;100905.41;5013947;28;45895;-67
2022/08/18 08:56:15;;;;;;;;;17.67;17.67;;;;;26.37;49.96;100888.19;5013279;28;45568;-67
2022/08/18 08:58:49;;;;;;;;;19.00;16.33;;;;;26.56;49.59;100900.50;5013289;28;46077;-66
2022/08/18 09:01:36;;;;;;;;;21.67;20.67;;;;;26.59;50.01;100895.78;5013354;28;45675;-65
2022/08/18 09:04:23;;;;;;;;;21.67;19.67;;;;;26.61;49.89;100887.63;5013475;28;45540;-65
2022/08/18 09:07:04;;;;;;;;;20.33;20.33;;;;;26.64;49.57;100893.66;5013663;28;45953;-66
2022/08/18 09:09:50;;;;;;;;;29.33;28.33;;;;;26.62;49.18;100906.38;5012386;28;46759;-67
2022/08/18 09:12:35;;;;;;;;;22.00;20.67;;;;;26.67;49.56;100902.50;5000494;28;46107;-65
2022/08/18 09:15:28;;;;;;;;;20.67;16.33;;;;;26.81;49.09;100905.19;5011918;28;45652;-66
2022/08/18 09:18:12;;;;;;;;;17.67;16.33;;;;;26.92;48.74;100900.00;5008161;28;45424;-66
2022/08/18 09:20:50;;;;;;;;;21.33;20.33;;;;;27.06;48.52;100909.84;4998443;28;47294;-66
2022/08/18 09:23:24;;;;;;;;;20.33;18.00;;;;;27.13;48.38;100921.09;5013088;28;45711;-66
2022/08/18 09:25:59;;;;;;;;;24.33;21.00;;;;;27.15;48.11;100920.03;5013537;28;45450;-68
2022/08/18 09:28:28;;;;;;;;;18.00;17.33;;;;;27.25;48.09;100913.09;4995499;28;45482;-66
2022/08/18 09:31:05;;;;;;;;;18.00;15.33;;;;;27.33;48.05;100912.59;5007345;28;46137;-68
2022/08/18 09:33:44;;;;;;;;;20.33;18.00;;;;;27.41;47.67;100912.97;5002286;28;45426;-67
2022/08/18 09:36:16;;;;;;;;;23.67;18.00;;;;;27.48;47.58;100914.28;5016938;28;45308;-67
2022/08/18 09:41:59;;;;;;;;;25.00;23.00;;;;;27.26;47.41;100904.09;5015596;28;46074;-65
2022/08/18 09:44:51;;;;;;;;;22.00;20.00;;;;;27.43;47.28;100910.16;5013482;28;45560;-65
2022/08/18 09:47:19;;;;;;;;;21.67;19.00;;;;;27.56;47.04;100907.53;5004650;28;45436;-65
2022/08/18 09:49:56;;;;;;;;;20.33;19.00;;;;;27.59;46.04;100916.25;5012933;28;45402;-65
2022/08/18 09:52:22;;;;;;;;;20.67;19.00;;;;;27.64;45.60;100915.94;5012606;28;45766;-65
2022/08/18 09:55:16;;;;;;;;;22.00;19.00;;;;;27.62;46.19;100912.50;5013792;28;45367;-66
2022/08/18 09:57:43;;;;;;;;;17.00;17.00;;;;;27.63;46.43;100908.88;5002579;28;45579;-66
2022/08/18 10:00:12;;;;;;;;;15.00;13.67;;;;;27.77;46.20;100908.78;5012181;28;45498;-66
2022/08/18 10:02:39;;;;;;;;;15.00;13.33;;;;;27.86;45.89;100910.91;5015281;28;45573;-66
2022/08/18 10:05:19;;;;;;;;;14.67;14.00;;;;;27.98;45.91;100916.44;5013136;28;45488;-67
2022/08/18 10:07:45;;;;;;;;;16.00;16.00;;;;;28.05;45.56;100912.34;5013575;28;45469;-66
2022/08/18 10:10:29;;;;;;;;;15.33;15.33;;;;;28.13;45.24;100904.59;5013610;28;45622;-67
2022/08/18 10:13:28;;;;;;;;;18.00;17.00;;;;;28.16;44.30;100890.91;5012788;28;45509;-67
2022/08/18 10:16:24;;;;;;;;;27.33;24.67;;;;;28.04;42.23;100872.91;5013357;28;45600;-66
2022/08/18 10:19:07;;;;;;;;;23.00;21.00;;;;;27.96;42.83;100875.28;5004799;28;45667;-67
2022/08/18 10:22:02;;;;;;;;;21.33;18.67;;;;;27.94;43.00;100874.53;5017458;28;45447;-65
2022/08/18 10:24:57;;;;;;;;;24.00;24.00;;;;;27.88;42.72;100875.78;5019600;28;45290;-66
2022/08/18 10:27:32;;;;;;;;;20.33;17.33;;;;;27.99;43.38;100870.53;5014607;28;45596;-66
2022/08/18 10:30:04;;;;;;;;;24.67;20.33;;;;;28.14;43.41;100865.91;5012848;28;45633;-65
2022/08/18 10:32:39;;;;;;;;;16.67;16.67;;;;;28.23;43.88;100864.41;5006551;28;45529;-66
2022/08/18 10:35:33;;;;;;;;;16.67;16.67;;;;;28.23;42.62;100862.56;5002296;28;46089;-66
2022/08/18 10:38:06;;;;;;;;;17.67;17.67;;;;;28.26;43.81;100848.91;5015699;28;45379;-66
2022/08/18 10:40:33;;;;;;;;;20.00;16.67;;;;;28.38;43.00;100851.69;5016125;28;45919;-67
2022/08/18 10:43:16;;;;;;;;;18.00;17.00;;;;;28.49;43.05;100857.22;5016172;28;45725;-66
2022/08/18 10:45:51;;;;;;;;;15.33;15.00;;;;;28.64;43.44;100860.63;5018731;28;46305;-66
2022/08/18 10:48:23;;;;;;;;;21.33;17.33;;;;;28.73;42.06;100851.88;5018318;28;45488;-67
2022/08/18 10:51:11;;;;;;;;;17.33;11.67;;;;;28.84;42.18;100854.66;5009707;28;45355;-67
2022/08/18 10:53:51;;;;;;;;;16.33;15.67;;;;;28.91;41.05;100849.69;5015168;28;45963;-67
2022/08/18 10:56:39;;;;;;;;;16.25;14.00;;;;;28.91;41.04;100855.09;5015425;28;46615;-66
2022/08/18 10:59:30;;;;;;;;;21.33;20.33;;;;;28.91;40.23;100852.38;5017336;28;45581;-67
2022/08/18 11:02:33;;;;;;;;;16.33;16.00;;;;;29.03;41.27;100853.31;5015107;28;45378;-64
2022/08/18 11:05:05;;;;;;;;;14.67;14.67;;;;;29.30;40.80;100859.38;5012073;28;45494;-66
2022/08/18 11:07:31;;;;;;;;;17.67;16.67;;;;;29.44;40.21;100850.25;5012896;28;45347;-65
2022/08/18 11:09:58;;;;;;;;;13.00;12.33;;;;;29.58;40.00;100855.47;5015054;28;45421;-67
2022/08/18 11:13:01;;;;;;;;;15.00;13.75;;;;;29.69;40.32;100851.13;5019131;28;45434;-67
2022/08/18 11:16:05;;;;;;;;;14.25;13.50;;;;;29.80;39.60;100845.75;5011203;28;45619;-65
2022/08/18 11:18:40;;;;;;;;;13.00;12.25;;;;;29.94;39.41;100845.53;5014335;28;45465;-66
2022/08/18 11:21:23;;;;;;;;;16.75;14.75;;;;;30.05;39.36;100852.81;5007430;28;45392;-66
2022/08/18 11:24:28;;;;;;;;;15.50;13.00;;;;;30.20;38.30;100845.34;5015461;28;45512;-66
2022/08/18 11:27:02;;;;;;;;;16.00;15.00;;;;;30.29;39.46;100849.19;4992147;28;45496;-67
2022/08/18 11:29:36;;;;;;;;;15.00;13.75;;;;;30.23;37.46;100855.88;5011884;28;45968;-66
2022/08/18 11:32:06;;;;;;;;;14.75;14.00;;;;;30.29;37.28;100855.44;5015035;28;45292;-67
2022/08/18 11:34:42;;;;;;;;;14.50;13.25;;;;;30.43;38.01;100840.84;5007391;28;45581;-65
2022/08/18 11:37:21;;;;;;;;;11.25;11.25;;;;;30.61;38.10;100849.31;5014535;28;45380;-67
2022/08/18 11:39:49;;;;;;;;;13.50;13.50;;;;;30.64;37.18;100844.53;5015025;28;45621;-67
2022/08/18 11:42:25;;;;;;;;;13.75;12.25;;;;;30.71;37.05;100844.03;5017779;28;45505;-67
2022/08/18 11:44:54;;;;;;;;;12.75;11.25;;;;;30.57;36.57;100837.03;5012689;28;45444;-66
2022/08/18 11:47:21;;;;;;;;;16.75;16.25;;;;;30.40;36.03;100844.66;5015178;28;45458;-65
2022/08/18 11:50:07;;;;;;;;;17.00;16.00;;;;;30.01;36.99;100856.72;5015002;28;46142;-66
2022/08/18 11:52:46;;;;;;;;;14.75;14.75;;;;;29.70;38.23;100869.03;5012791;28;45518;-66
2022/08/18 11:55:26;;;;;;;;;14.75;13.75;;;;;29.69;37.72;100861.94;5014079;28;45506;-67
2022/08/18 11:57:55;;;;;;;;;12.25;12.25;;;;;29.86;38.18;100858.78;5018080;28;45812;-67